Ibiza Aeropuerto en Baleares

latitud = 38° 52' 35''N | longitud = 0014° 23' 04''E
6 metros sobre el nivel del mar |

Fecha, hora, temperatura, viento dirección y velocidad, humedad y presión.

  • 22-11-2017 09:00:00 | 12.50°C | Calma |0.00 km/h | 98.00% | 1016.00 hPa
  • 22-11-2017 08:00:00 | 9.60°C | Calma |0.00 km/h | 98.00% | 1015.60 hPa
  • 22-11-2017 07:00:00 | 9.30°C | Calma |0.00 km/h | 98.00% | 1015.70 hPa
  • 22-11-2017 06:00:00 | 9.50°C | Calma |0.00 km/h | 98.00% | 1015.70 hPa
  • 22-11-2017 05:00:00 | 9.80°C | Calma |0.00 km/h | 98.00% | 1016.10 hPa
  • 22-11-2017 04:00:00 | 9.00°C | Calma |0.00 km/h | 97.00% | 1016.60 hPa
  • 22-11-2017 03:00:00 | 9.30°C | Calma |0.00 km/h | 97.00% | 1017.10 hPa
  • 22-11-2017 02:00:00 | 10.10°C | Calma |0.00 km/h | 97.00% | 1017.00 hPa
  • 22-11-2017 01:00:00 | 10.20°C | Calma |0.00 km/h | 97.00% | 1017.70 hPa
  • 22-11-2017 00:00:00 | 10.30°C | Calma |0.00 km/h | 96.00% | 1018.10 hPa
  • 21-11-2017 23:00:00 | 10.70°C | Calma |0.00 km/h | 96.00% | 1018.30 hPa
  • 21-11-2017 22:00:00 | 11.60°C | Calma |0.00 km/h | 94.00% | 1018.40 hPa
  • 21-11-2017 21:00:00 | 11.90°C | Calma |0.00 km/h | 92.00% | 1018.50 hPa
  • 21-11-2017 20:00:00 | 12.60°C | Noroeste |8.00 km/h | 92.00% | 1018.40 hPa
  • 21-11-2017 19:00:00 | 14.00°C | Sudoeste |2.00 km/h | 89.00% | 1018.40 hPa
  • 21-11-2017 18:00:00 | 16.10°C | Sur |7.00 km/h | 84.00% | 1018.40 hPa
  • 21-11-2017 17:00:00 | 18.00°C | Sudoeste |9.00 km/h | 75.00% | 1018.60 hPa
  • 21-11-2017 16:00:00 | 18.10°C | Sudoeste |10.00 km/h | 72.00% | 1018.80 hPa
  • 21-11-2017 15:00:00 | 19.20°C | Sudoeste |12.00 km/h | 70.00% | 1018.80 hPa
  • 21-11-2017 14:00:00 | 19.20°C | Sudoeste |14.00 km/h | 71.00% | 1019.10 hPa
  • 21-11-2017 13:00:00 | 19.30°C | Sudoeste |13.00 km/h | 73.00% | 1019.50 hPa
  • 21-11-2017 12:00:00 | 19.40°C | Sur |10.00 km/h | 71.00% | 1020.20 hPa
  • 21-11-2017 11:00:00 | 18.70°C | Sudoeste |10.00 km/h | 74.00% | 1020.60 hPa
  • 21-11-2017 10:00:00 | 16.90°C | Calma |0.00 km/h | 85.00% | 1020.70 hPa
    • Datos gráficos mensuales de Ibiza Aeropuerto: